Time;durP1;ratioP1;P1;durP2;ratioP2;P2;SDS_P1;SDS_P2;PMS_P1;PMS_P2;Temp;Humidity;BMP_temperature;BMP_pressure;BME280_temperature;BME280_humidity;BME280_pressure;Samples;Min_cycle;Max_cycle;Signal;HPM_P1;HPM_P2
2023/04/21 00:01:58;;;;;;;24.10;5.70;;;;;;;6.19;100.00;99978.92;105942;1253;75483;-52
2023/04/21 00:04:27;;;;;;;22.60;5.50;;;;;;;6.18;100.00;99977.89;105930;1255;65615;-50
2023/04/21 00:06:56;;;;;;;25.70;5.10;;;;;;;6.17;100.00;99978.91;105921;1253;73334;-51
2023/04/21 00:09:24;;;;;;;19.70;5.60;;;;;;;6.15;100.00;99976.54;105932;1256;63567;-52
2023/04/21 00:11:53;;;;;;;27.10;5.90;;;;;;;6.15;100.00;99974.14;105968;1254;61623;-51
2023/04/21 00:14:21;;;;;;;21.10;5.20;;;;;;;6.14;100.00;99972.44;105935;1256;75127;-52
2023/04/21 00:16:51;;;;;;;18.40;5.30;;;;;;;6.14;100.00;99972.95;105901;1256;65979;-51
2023/04/21 00:19:20;;;;;;;22.30;5.70;;;;;;;6.12;100.00;99968.00;105840;1254;74174;-51
2023/04/21 00:21:48;;;;;;;26.70;5.50;;;;;;;6.11;100.00;99964.75;105755;1256;62170;-53
2023/04/21 00:24:17;;;;;;;20.40;5.50;;;;;;;6.10;100.00;99962.70;105818;1252;61836;-51
2023/04/21 00:26:45;;;;;;;23.00;5.90;;;;;;;6.11;100.00;99959.62;105947;1253;75409;-53
2023/04/21 00:29:14;;;;;;;17.20;5.20;;;;;;;6.11;100.00;99957.73;105941;1256;65963;-51
2023/04/21 00:31:42;;;;;;;13.20;4.50;;;;;;;6.11;100.00;99957.89;105926;1253;74300;-57
2023/04/21 00:34:10;;;;;;;20.70;5.50;;;;;;;6.10;100.00;99956.38;105766;1256;63451;-55
2023/04/21 00:36:39;;;;;;;20.40;5.00;;;;;;;6.08;100.00;99951.59;105939;1254;61548;-52
2023/04/21 00:39:07;;;;;;;23.70;4.20;;;;;;;6.08;100.00;99944.91;105898;1256;75125;-55
2023/04/21 00:41:37;;;;;;;17.00;4.60;;;;;;;6.07;100.00;99944.56;105900;1256;65997;-51
2023/04/21 00:44:09;;;;;;;16.20;4.50;;;;;;;6.06;100.00;99943.02;105905;1254;73909;-55
2023/04/21 00:46:37;;;;;;;14.80;4.60;;;;;;;6.03;100.00;99944.42;105899;1256;63900;-50
2023/04/21 00:49:06;;;;;;;11.00;4.10;;;;;;;6.01;100.00;99941.19;105980;1256;61714;-48
2023/04/21 00:51:35;;;;;;;24.00;4.70;;;;;;;6.00;100.00;99943.58;105975;1256;75057;-49
2023/04/21 00:54:04;;;;;;;15.40;4.60;;;;;;;6.00;100.00;99940.14;105935;1254;65874;-49
2023/04/21 00:56:34;;;;;;;11.90;4.40;;;;;;;6.00;100.00;99942.54;105913;1253;73624;-50
2023/04/21 00:59:02;;;;;;;21.30;5.10;;;;;;;5.99;100.00;99942.38;105902;1254;63453;-49
2023/04/21 01:01:33;;;;;;;12.30;4.20;;;;;;;5.99;100.00;99937.40;105931;1254;61702;-47
2023/04/21 01:04:02;;;;;;;20.20;4.40;;;;;;;5.98;100.00;99940.84;105792;1257;75239;-47
2023/04/21 01:06:31;;;;;;;16.60;4.20;;;;;;;5.97;100.00;99940.85;105893;1255;65206;-47
2023/04/21 01:09:00;;;;;;;23.80;4.40;;;;;;;5.96;100.00;99941.20;105959;1254;73223;-48
2023/04/21 01:11:28;;;;;;;14.10;4.00;;;;;;;5.95;100.00;99938.30;105978;1256;63372;-50
2023/04/21 01:13:57;;;;;;;15.30;4.00;;;;;;;5.95;100.00;99936.41;105936;1256;61441;-49
2023/04/21 01:16:25;;;;;;;14.10;4.00;;;;;;;5.94;100.00;99930.60;105965;1253;75333;-48
2023/04/21 01:18:54;;;;;;;15.40;4.10;;;;;;;5.93;100.00;99926.31;105933;1254;65104;-47
2023/04/21 01:21:22;;;;;;;13.40;4.30;;;;;;;5.92;100.00;99923.58;105912;1254;74269;-51
2023/04/21 01:23:51;;;;;;;12.60;3.90;;;;;;;5.91;100.00;99924.10;105752;1257;62226;-48
2023/04/21 01:26:20;;;;;;;12.50;4.10;;;;;;;5.90;100.00;99919.13;105934;1254;61909;-50
2023/04/21 01:28:48;;;;;;;10.80;3.60;;;;;;;5.90;100.00;99917.94;105882;1252;73787;-48
2023/04/21 01:31:17;;;;;;;15.60;3.70;;;;;;;5.90;100.00;99914.17;105937;1256;66259;-50
2023/04/21 02:19:23;;;;;;;17.80;3.70;;;;;;;5.91;100.00;99904.58;102622;1292;600913;-49
2023/04/21 02:21:51;;;;;;;29.60;4.10;;;;;;;5.89;100.00;99899.62;104838;1266;63214;-48
2023/04/21 02:24:21;;;;;;;18.20;3.60;;;;;;;5.89;100.00;99894.14;104845;1265;61593;-49
2023/04/21 02:26:50;;;;;;;16.30;3.60;;;;;;;5.88;100.00;99893.64;104892;1266;73742;-48
2023/04/21 02:29:18;;;;;;;24.20;3.90;;;;;;;5.87;100.00;99890.04;104850;1270;66089;-51
2023/04/21 02:31:47;;;;;;;19.20;4.30;;;;;;;5.86;100.00;99893.66;104820;1266;73151;-49
2023/04/21 02:34:31;;;;;;;19.90;3.90;;;;;;;5.84;100.00;99893.84;104909;1268;62111;-49
2023/04/21 02:36:59;;;;;;;17.50;4.00;;;;;;;5.84;100.00;99891.10;105556;1262;61875;-48
2023/04/21 02:39:28;;;;;;;29.80;4.80;;;;;;;5.83;100.00;99890.25;105592;1259;73750;-51
2023/04/21 02:41:57;;;;;;;22.80;3.80;;;;;;;5.84;100.00;99888.88;105569;1261;65957;-50
2023/04/21 02:44:27;;;;;;;24.40;4.00;;;;;;;5.84;100.00;99889.55;105592;1257;74147;-50
2023/04/21 02:46:57;;;;;;;18.00;4.20;;;;;;;5.84;100.00;99892.13;105612;1261;62799;-50
2023/04/21 02:49:25;;;;;;;21.20;3.90;;;;;;;5.84;100.00;99889.39;105516;1262;60831;-51
2023/04/21 02:51:54;;;;;;;14.90;4.10;;;;;;;5.84;100.00;99893.16;105599;1258;74529;-48
2023/04/21 02:54:22;;;;;;;24.30;3.90;;;;;;;5.84;100.00;99891.79;105493;1262;65809;-49
2023/04/21 02:56:51;;;;;;;16.80;4.00;;;;;;;5.84;100.00;99895.23;105575;1259;74193;-51
2023/04/21 02:59:20;;;;;;;15.90;4.00;;;;;;;5.85;100.00;99896.41;105620;1256;62584;-48
2023/04/21 03:01:49;;;;;;;16.90;3.40;;;;;;;5.84;100.00;99892.64;105634;1256;60778;-49
2023/04/21 03:04:18;;;;;;;29.70;4.70;;;;;;;5.83;100.00;99892.31;105615;1257;74632;-49
2023/04/21 03:06:47;;;;;;;21.50;4.10;;;;;;;5.83;100.00;99892.31;105590;1256;65160;-49
2023/04/21 03:09:15;;;;;;;23.30;4.30;;;;;;;5.84;100.00;99889.57;105577;1260;73995;-48
2023/04/21 03:11:44;;;;;;;19.90;4.20;;;;;;;5.84;100.00;99890.59;105618;1261;63521;-49
2023/04/21 03:14:12;;;;;;;20.00;3.90;;;;;;;5.84;100.00;99888.70;105601;1257;61551;-48
2023/04/21 03:16:40;;;;;;;19.30;3.00;;;;;;;5.85;100.00;99889.38;105568;1256;74517;-51
2023/04/21 03:19:09;;;;;;;23.40;3.60;;;;;;;5.85;100.00;99890.08;105621;1256;66027;-49
2023/04/21 03:21:37;;;;;;;21.70;3.80;;;;;;;5.85;100.00;99890.58;105585;1257;73862;-48
2023/04/21 03:24:07;;;;;;;14.60;3.50;;;;;;;5.86;100.00;99887.83;105639;1257;63557;-51
2023/04/21 03:26:38;;;;;;;24.50;4.70;;;;;;;5.88;100.00;99888.68;105621;1257;61237;-49
2023/04/21 03:29:07;;;;;;;19.10;4.10;;;;;;;5.89;100.00;99888.65;105601;1257;73486;-51
2023/04/21 03:31:35;;;;;;;27.30;4.00;;;;;;;5.91;100.00;99892.24;105618;1261;66171;-49
2023/04/21 03:34:03;;;;;;;22.10;3.40;;;;;;;5.90;100.00;99890.88;105552;1257;74195;-50
2023/04/21 03:36:33;;;;;;;24.80;4.00;;;;;;;5.91;100.00;99890.02;105580;1262;63428;-53
2023/04/21 03:39:03;;;;;;;21.70;4.80;;;;;;;5.92;100.00;99892.24;105598;1257;61578;-50
2023/04/21 03:41:46;;;;;;;16.60;3.50;;;;;;;5.92;100.00;99891.55;105308;1258;73574;-49
2023/04/21 03:46:53;;;;;;;20.80;4.00;;;;;;;5.93;100.00;99895.83;102940;1295;601061;-52
2023/04/21 03:49:23;;;;;;;33.20;4.30;;;;;;;5.94;100.00;99890.17;105232;1264;62557;-47
2023/04/21 03:51:51;;;;;;;22.50;3.60;;;;;;;5.95;100.00;99890.33;105189;1267;60564;-50
2023/04/21 03:54:20;;;;;;;20.60;4.00;;;;;;;5.96;100.00;99892.90;105168;1267;73880;-50
2023/04/21 03:56:48;;;;;;;29.20;4.20;;;;;;;5.95;100.00;99891.02;105175;1264;66169;-50
2023/04/21 03:59:16;;;;;;;24.60;4.10;;;;;;;5.97;100.00;99889.46;105173;1267;74180;-51
2023/04/21 04:01:45;;;;;;;25.90;4.10;;;;;;;5.98;100.00;99885.52;105065;1265;61392;-48
2023/04/21 04:04:14;;;;;;;22.10;3.70;;;;;;;6.00;100.00;99890.81;105221;1263;61595;-50
2023/04/21 04:06:43;;;;;;;24.90;4.70;;;;;;;6.01;100.00;99885.51;105210;1266;73473;-52
2023/04/21 04:09:11;;;;;;;17.50;3.30;;;;;;;6.02;100.00;99884.30;105286;1265;65916;-49
2023/04/21 04:11:39;;;;;;;23.10;3.50;;;;;;;6.04;100.00;99882.57;105196;1261;74128;-49
2023/04/21 04:14:08;;;;;;;20.80;3.80;;;;;;;6.05;100.00;99883.94;105224;1266;63093;-52
2023/04/21 04:16:36;;;;;;;26.30;4.40;;;;;;;6.07;100.00;99879.83;105231;1263;61847;-48
2023/04/21 04:19:04;;;;;;;24.50;3.30;;;;;;;6.07;100.00;99884.44;105206;1264;74397;-50
2023/04/21 04:21:33;;;;;;;26.30;4.10;;;;;;;6.07;100.00;99883.59;105238;1267;65898;-48
2023/04/21 04:24:02;;;;;;;19.10;4.20;;;;;;;6.07;100.00;99883.41;105215;1264;73876;-48
2023/04/21 04:26:32;;;;;;;22.70;4.10;;;;;;;6.07;100.00;99882.91;105227;1267;62378;-47
2023/04/21 04:29:01;;;;;;;23.80;4.10;;;;;;;6.08;100.00;99881.52;105265;1264;61584;-49
2023/04/21 04:31:29;;;;;;;18.20;3.30;;;;;;;6.08;100.00;99881.70;105340;1263;75001;-50
2023/04/21 05:19:26;;;;;;;23.90;3.30;;;;;;;6.34;100.00;99882.81;103181;1285;600615;-51
2023/04/21 05:22:00;;;;;;;20.60;3.70;;;;;;;6.33;100.00;99879.22;104861;1270;63526;-49
2023/04/21 05:24:28;;;;;;;21.20;3.60;;;;;;;6.35;100.00;99882.13;104791;1265;62055;-51
2023/04/21 05:26:56;;;;;;;17.20;3.40;;;;;;;6.38;100.00;99880.20;104867;1268;73817;-49
2023/04/21 05:29:25;;;;;;;26.30;3.90;;;;;;;6.39;100.00;99875.39;104811;1270;66093;-51
2023/04/21 05:31:53;;;;;;;23.80;4.10;;;;;;;6.40;100.00;99877.94;104698;1266;235628;-49
2023/04/21 05:34:22;;;;;;;22.50;4.40;;;;;;;6.42;100.00;99874.48;105136;1267;63558;-49
2023/04/21 05:36:51;;;;;;;25.20;3.80;;;;;;;6.43;100.00;99870.71;104975;1264;61539;-50
2023/04/21 05:39:19;;;;;;;14.80;3.90;;;;;;;6.45;100.00;99872.94;105098;1265;73828;-49
2023/04/21 05:41:47;;;;;;;28.40;4.30;;;;;;;6.47;100.00;99869.48;105140;1268;65873;-50
2023/04/21 05:44:16;;;;;;;25.80;3.90;;;;;;;6.50;100.00;99868.08;105122;1264;74214;-51
2023/04/21 05:46:45;;;;;;;19.60;3.50;;;;;;;6.51;100.00;99867.04;105122;1264;62900;-51
2023/04/21 05:49:13;;;;;;;20.10;3.70;;;;;;;6.50;100.00;99872.19;105164;1264;61993;-49
2023/04/21 05:51:42;;;;;;;23.10;3.60;;;;;;;6.50;100.00;99870.30;105103;1266;74633;-53
2023/04/21 05:54:10;;;;;;;26.60;4.20;;;;;;;6.52;100.00;99870.45;105165;1265;66234;-50
2023/04/21 05:56:39;;;;;;;22.30;3.40;;;;;;;6.54;100.00;99871.80;105111;1264;74407;-52
2023/04/21 05:59:07;;;;;;;23.60;4.30;;;;;;;6.56;100.00;99874.02;105093;1268;62538;-54
2023/04/21 06:01:36;;;;;;;33.60;4.90;;;;;;;6.57;100.00;99872.11;105101;1264;61652;-50
2023/04/21 06:04:04;;;;;;;23.10;4.60;;;;;;;6.58;100.00;99875.19;105107;1263;74207;-51
2023/04/21 06:06:33;;;;;;;18.30;3.70;;;;;;;6.59;100.00;99877.92;105774;1253;66708;-52
2023/04/21 06:09:02;;;;;;;15.80;3.70;;;;;;;6.60;100.00;99877.06;105757;1253;74152;-51
2023/04/21 06:11:32;;;;;;;16.60;4.00;;;;;;;6.60;100.00;99875.34;105780;1257;63299;-49
2023/04/21 06:14:00;;;;;;;22.40;4.20;;;;;;;6.61;100.00;99878.23;105792;1253;61608;-52
2023/04/21 06:16:32;;;;;;;18.00;3.40;;;;;;;6.63;100.00;99877.20;105814;1253;74728;-49
2023/04/21 06:19:01;;;;;;;27.40;4.20;;;;;;;6.63;100.00;99879.76;105883;1254;65933;-51
2023/04/21 06:21:31;;;;;;;18.80;3.80;;;;;;;6.65;100.00;99881.80;105850;1253;73276;-51
2023/04/21 06:23:59;;;;;;;14.30;3.60;;;;;;;6.67;100.00;99881.09;105907;1254;63498;-50
2023/04/21 06:26:29;;;;;;;15.40;4.10;;;;;;;6.67;100.00;99885.02;105863;1254;61862;-52
2023/04/21 06:28:57;;;;;;;19.20;4.00;;;;;;;6.69;100.00;99881.75;105836;1253;74337;-49
2023/04/21 06:31:25;;;;;;;24.70;4.00;;;;;;;6.73;100.00;99883.95;105817;1257;65771;-50
2023/04/21 06:33:54;;;;;;;25.10;3.90;;;;;;;6.76;100.00;99884.75;105796;1258;73884;-51
2023/04/21 06:36:22;;;;;;;17.30;3.70;;;;;;;6.80;100.00;99887.45;105783;1257;63223;-51
2023/04/21 06:38:51;;;;;;;18.30;4.30;;;;;;;6.83;100.00;99888.11;105835;1254;61641;-53
2023/04/21 06:41:19;;;;;;;11.50;3.60;;;;;;;6.87;100.00;99889.95;105766;1254;74599;-51
2023/04/21 06:43:49;;;;;;;15.90;4.00;;;;;;;6.92;100.00;99887.98;105786;1257;65399;-51
2023/04/21 06:46:18;;;;;;;21.00;3.40;;;;;;;6.98;100.00;99883.98;105693;1254;74183;-52
2023/04/21 06:48:46;;;;;;;20.50;4.40;;;;;;;7.02;100.00;99886.85;105762;1257;63276;-51
2023/04/21 06:51:15;;;;;;;15.40;3.40;;;;;;;7.06;100.00;99886.10;105811;1253;61846;-52
2023/04/21 06:53:43;;;;;;;15.20;3.30;;;;;;;7.10;100.00;99884.34;105766;1254;74607;-52
2023/04/21 06:56:11;;;;;;;10.90;3.30;;;;;;;7.12;100.00;99883.97;105804;1258;66450;-53
2023/04/21 06:58:40;;;;;;;11.10;3.40;;;;;;;7.12;100.00;99880.38;105782;1254;73211;-53
2023/04/21 07:01:08;;;;;;;14.30;3.20;;;;;;;7.11;100.00;99882.95;105639;1253;63831;-52
2023/04/21 07:03:36;;;;;;;13.90;3.60;;;;;;;7.14;100.00;99885.14;105707;1253;62004;-52
2023/04/21 07:06:06;;;;;;;9.80;3.00;;;;;;;7.17;100.00;99886.11;105809;1253;74871;-51
2023/04/21 07:08:34;;;;;;;11.90;2.90;;;;;;;7.23;100.00;99892.75;105799;1254;66017;-55
2023/04/21 07:11:03;;;;;;;13.30;3.30;;;;;;;7.27;100.00;99891.15;105760;1254;74158;-51
2023/04/21 07:13:31;;;;;;;14.40;3.10;;;;;;;7.32;100.00;99891.95;105744;1256;63266;-50
2023/04/21 07:16:00;;;;;;;13.10;3.20;;;;;;;7.36;100.00;99892.76;105792;1254;61556;-50
2023/04/21 07:18:28;;;;;;;11.30;3.30;;;;;;;7.37;100.00;99892.05;105807;1257;74426;-50
2023/04/21 07:20:57;;;;;;;17.90;3.20;;;;;;;7.39;100.00;99893.56;105804;1254;65043;-52
2023/04/21 07:23:25;;;;;;;10.20;3.30;;;;;;;7.42;100.00;99895.74;105771;1254;74269;-50
2023/04/21 07:25:58;;;;;;;10.60;3.40;;;;;;;7.47;100.00;99893.11;105780;1257;63249;-52
2023/04/21 07:28:26;;;;;;;13.40;2.90;;;;;;;7.51;100.00;99892.88;105795;1254;60384;-51
2023/04/21 07:30:55;;;;;;;13.50;3.20;;;;;;;7.55;100.00;99897.30;105827;1254;74729;-49
2023/04/21 07:33:24;;;;;;;16.70;3.10;;;;;;;7.56;100.00;99895.88;105826;1257;66017;-51
2023/04/21 07:35:52;;;;;;;12.30;2.90;;;;;;;7.57;100.00;99897.77;105787;1254;74576;-51
2023/04/21 07:38:20;;;;;;;6.70;2.40;;;;;;;7.60;100.00;99900.65;105748;1257;63528;-50
2023/04/21 07:40:49;;;;;;;12.60;3.00;;;;;;;7.65;100.00;99903.30;105763;1254;61611;-50
2023/04/21 07:43:18;;;;;;;10.20;3.30;;;;;;;7.68;100.00;99901.20;105790;1258;74380;-51
2023/04/21 07:45:47;;;;;;;10.00;3.30;;;;;;;7.69;100.00;99904.45;105816;1257;66044;-49
2023/04/21 07:48:15;;;;;;;11.60;2.70;;;;;;;7.70;100.00;99903.91;105796;1254;74192;-52
2023/04/21 07:50:43;;;;;;;11.30;2.90;;;;;;;7.69;100.00;99910.30;105639;1254;63548;-51
2023/04/21 07:53:12;;;;;;;15.70;3.20;;;;;;;7.69;100.00;99913.73;105824;1254;61632;-50
2023/04/21 07:55:40;;;;;;;14.30;2.80;;;;;;;7.71;100.00;99915.76;105790;1257;74401;-49
2023/04/21 07:58:09;;;;;;;11.80;3.00;;;;;;;7.69;100.00;99916.98;105832;1257;66139;-52
2023/04/21 08:00:37;;;;;;;11.80;2.80;;;;;;;7.68;100.00;99918.02;105845;1257;74164;-51
2023/04/21 08:03:06;;;;;;;10.50;2.80;;;;;;;7.67;100.00;99921.30;105834;1253;63333;-51
2023/04/21 08:05:35;;;;;;;10.30;2.70;;;;;;;7.67;100.00;99925.95;105820;1257;60871;-50
2023/04/21 08:08:08;;;;;;;13.90;3.20;;;;;;;7.67;100.00;99924.91;105836;1257;73335;-51
2023/04/21 08:10:36;;;;;;;6.60;2.60;;;;;;;7.70;100.00;99927.45;105790;1257;65944;-52
2023/04/21 08:13:05;;;;;;;14.30;2.70;;;;;;;7.73;100.00;99928.80;105803;1254;73927;-50
2023/04/21 08:15:33;;;;;;;11.60;2.60;;;;;;;7.75;100.00;99930.98;105770;1254;63548;-50
2023/04/21 08:18:22;;;;;;;11.10;2.90;;;;;;;7.78;100.00;99931.80;105843;1254;61774;-51
2023/04/21 08:20:56;;;;;;;11.30;3.30;;;;;;;7.82;100.00;99934.66;105756;1255;74625;-51
2023/04/21 08:23:24;;;;;;;14.70;2.50;;;;;;;7.84;100.00;99936.70;105800;1256;65548;-51
2023/04/21 08:25:53;;;;;;;7.70;2.60;;;;;;;7.86;100.00;99940.11;105757;1254;72952;-49
2023/04/21 08:28:21;;;;;;;8.80;3.10;;;;;;;7.88;100.00;99942.47;105789;1254;62509;-50
2023/04/21 08:30:50;;;;;;;9.80;2.30;;;;;;;7.92;100.00;99942.74;105831;1254;61706;-50
2023/04/21 08:33:18;;;;;;;6.90;2.50;;;;;;;7.98;100.00;99941.46;105817;1257;74175;-51
2023/04/21 08:35:47;;;;;;;11.90;2.40;;;;;;;8.03;100.00;99940.17;105855;1258;65955;-51
2023/04/21 08:38:34;;;;;;;9.70;2.50;;;;;;;8.07;100.00;99946.98;105734;1254;73266;-49
2023/04/21 08:41:03;;;;;;;6.60;2.30;;;;;;;8.10;100.00;99950.39;105814;1257;63266;-54
2023/04/21 08:43:33;;;;;;;9.10;2.20;;;;;;;8.16;100.00;99950.29;105816;1253;61807;-54
2023/04/21 08:46:02;;;;;;;11.00;2.10;;;;;;;8.19;100.00;99955.38;105718;1257;74604;-52
2023/04/21 08:48:30;;;;;;;9.30;2.40;;;;;;;8.20;100.00;99962.42;105635;1254;65566;-51
2023/04/21 08:50:59;;;;;;;8.60;2.10;;;;;;;8.24;100.00;99966.50;105652;1254;74162;-56
2023/04/21 08:53:28;;;;;;;11.20;2.20;;;;;;;8.26;100.00;99972.48;105690;1254;62159;-56
2023/04/21 08:55:56;;;;;;;6.40;1.80;;;;;;;8.28;100.00;99983.43;105818;1254;61527;-51
2023/04/21 08:58:40;;;;;;;6.60;1.90;;;;;;;8.30;100.00;99983.23;105818;1254;74316;-52
2023/04/21 09:01:09;;;;;;;6.40;1.90;;;;;;;8.33;100.00;99996.59;105839;1257;65923;-52
2023/04/21 09:04:15;;;;;;;3.80;1.60;;;;;;;8.35;100.00;99996.73;105838;1254;73943;-52
2023/04/21 09:06:45;;;;;;;5.70;1.70;;;;;;;8.38;100.00;100007.70;105817;1253;63407;-50
2023/04/21 09:09:13;;;;;;;3.50;1.80;;;;;;;8.42;100.00;100017.42;105817;1257;60824;-51
2023/04/21 09:11:42;;;;;;;3.50;2.10;;;;;;;8.44;100.00;100027.70;105839;1257;74498;-51
2023/04/21 09:14:10;;;;;;;6.50;2.00;;;;;;;8.43;100.00;100040.79;105812;1254;65494;-50
2023/04/21 09:16:39;;;;;;;2.00;1.30;;;;;;;8.42;100.00;100054.90;105806;1254;74177;-50
2023/04/21 09:19:15;;;;;;;2.40;1.90;;;;;;;8.42;100.00;100061.27;105853;1258;62329;-50
2023/04/21 09:21:43;;;;;;;11.70;2.00;;;;;;;8.40;100.00;100073.51;105807;1253;61581;-50
2023/04/21 09:24:12;;;;;;;4.10;1.60;;;;;;;8.39;100.00;100084.20;105817;1254;73910;-49
2023/04/21 09:26:41;;;;;;;5.70;2.00;;;;;;;8.40;100.00;100091.41;105802;1257;65940;-50
2023/04/21 09:29:09;;;;;;;7.20;1.90;;;;;;;8.41;100.00;100099.13;105815;1259;73188;-51
2023/04/21 09:31:37;;;;;;;2.60;1.70;;;;;;;8.41;100.00;100104.44;105701;1259;64018;-50
2023/04/21 10:19:38;;;;;;;7.50;2.90;;;;;;;8.62;100.00;100146.98;102653;1296;601092;-52
2023/04/21 10:22:08;;;;;;;10.30;2.60;;;;;;;8.60;100.00;100147.89;104743;1267;62889;-53
2023/04/21 10:24:39;;;;;;;10.20;3.20;;;;;;;8.61;100.00;100142.54;104810;1267;61844;-50
2023/04/21 10:27:11;;;;;;;14.50;2.80;;;;;;;8.61;100.00;100141.85;104865;1270;73739;-50
2023/04/21 10:29:40;;;;;;;10.00;2.40;;;;;;;8.60;100.00;100141.70;104876;1270;65696;-53
2023/04/21 10:32:44;;;;;;;5.90;2.80;;;;;;;8.58;100.00;100137.25;105007;1260;213979;-48
2023/04/21 10:35:22;;;;;;;6.60;2.80;;;;;;;8.58;100.00;100133.80;105253;1261;61889;-51
2023/04/21 10:37:50;;;;;;;11.20;3.10;;;;;;;8.55;100.00;100132.31;105287;1265;61500;-49
2023/04/21 10:40:29;;;;;;;8.00;2.70;;;;;;;8.54;100.00;100131.97;105221;1266;73463;-51
2023/04/21 10:43:56;;;;;;;8.30;2.50;;;;;;;8.55;100.00;100128.34;105243;1265;66243;-49
2023/04/21 10:46:35;;;;;;;8.60;3.20;;;;;;;8.50;100.00;100125.84;105141;1261;73941;-50
2023/04/21 10:49:26;;;;;;;12.50;2.80;;;;;;;8.50;100.00;100122.91;105634;1258;62828;-49
2023/04/21 10:52:04;;;;;;;8.00;3.30;;;;;;;8.47;100.00;100118.64;105644;1256;60572;-49
2023/04/21 10:54:45;;;;;;;10.80;2.30;;;;;;;8.45;100.00;100120.55;105628;1255;74603;-51
2023/04/21 10:57:18;;;;;;;9.50;3.20;;;;;;;8.44;100.00;100119.36;105638;1258;66011;-51
2023/04/21 10:59:48;;;;;;;4.70;2.70;;;;;;;8.47;100.00;100120.18;105629;1256;73878;-50
2023/04/21 11:02:17;;;;;;;5.00;2.40;;;;;;;8.49;100.00;100116.73;105615;1255;61759;-53
2023/04/21 11:04:53;;;;;;;7.50;2.40;;;;;;;8.50;100.00;100119.31;105629;1258;60880;-53
2023/04/21 11:07:22;;;;;;;6.60;1.70;;;;;;;8.48;100.00;100117.42;105619;1258;74524;-51
2023/04/21 11:10:03;;;;;;;5.30;1.80;;;;;;;8.45;100.00;100116.25;105660;1259;65622;-50
2023/04/21 11:12:33;;;;;;;5.90;1.40;;;;;;;8.44;100.00;100116.77;105644;1256;74172;-49
2023/04/21 11:15:06;;;;;;;2.70;1.30;;;;;;;8.45;100.00;100116.08;105645;1259;63025;-52
2023/04/21 11:17:38;;;;;;;2.70;1.00;;;;;;;8.43;100.00;100119.20;105648;1255;61531;-49
2023/04/21 11:20:07;;;;;;;3.60;1.40;;;;;;;8.41;100.00;100119.58;105653;1256;73588;-49
2023/04/21 11:22:37;;;;;;;1.90;0.90;;;;;;;8.40;100.00;100122.34;105667;1260;66475;-51
2023/04/21 11:25:16;;;;;;;2.70;0.90;;;;;;;8.38;100.00;100118.94;105664;1256;73966;-52
2023/04/21 11:27:55;;;;;;;2.30;1.00;;;;;;;8.37;100.00;100119.64;105671;1260;62508;-50
2023/04/21 11:30:33;;;;;;;6.00;1.10;;;;;;;8.40;100.00;100117.71;105602;1256;61621;-50
2023/04/21 11:33:02;;;;;;;5.20;0.90;;;;;;;8.41;100.00;100115.63;105641;1260;74696;-51
2023/04/21 11:35:31;;;;;;;3.10;1.50;;;;;;;8.45;100.00;100108.85;105652;1257;65302;-49
2023/04/21 11:38:04;;;;;;;2.00;1.10;;;;;;;8.43;100.00;100109.23;105624;1256;73951;-52
2023/04/21 11:40:48;;;;;;;2.50;1.20;;;;;;;8.40;100.00;100108.59;105632;1256;62209;-49
2023/04/21 11:43:17;;;;;;;7.90;1.60;;;;;;;8.41;100.00;100100.15;105642;1256;61841;-52
2023/04/21 11:45:49;;;;;;;10.40;2.20;;;;;;;8.41;100.00;100104.61;105667;1255;74563;-52
2023/04/21 11:48:20;;;;;;;5.60;1.90;;;;;;;8.45;100.00;100099.91;105623;1260;66168;-49
2023/04/21 11:50:49;;;;;;;5.40;1.80;;;;;;;8.49;100.00;100100.05;105613;1257;73979;-50
2023/04/21 11:53:18;;;;;;;4.90;2.30;;;;;;;8.51;100.00;100097.96;105612;1260;63324;-52
2023/04/21 11:55:47;;;;;;;8.90;1.80;;;;;;;8.55;100.00;100097.56;105609;1260;60530;-51
2023/04/21 11:58:16;;;;;;;9.80;2.80;;;;;;;8.63;100.00;100098.64;105643;1260;74291;-51
2023/04/21 12:00:45;;;;;;;9.90;2.50;;;;;;;8.69;100.00;100092.19;105579;1260;66151;-52
2023/04/21 12:03:14;;;;;;;8.40;2.60;;;;;;;8.68;100.00;100096.50;105561;1260;74223;-51
2023/04/21 12:05:43;;;;;;;18.10;3.70;;;;;;;8.61;100.00;100097.13;105581;1256;61579;-49
2023/04/21 12:08:13;;;;;;;7.80;3.10;;;;;;;8.56;100.00;100097.20;105574;1256;61607;-50
2023/04/21 12:10:45;;;;;;;14.40;3.70;;;;;;;8.50;100.00;100098.66;105564;1256;73945;-51
2023/04/21 12:13:23;;;;;;;14.90;3.30;;;;;;;8.45;100.00;100098.37;105601;1256;65925;-50
2023/04/21 12:15:52;;;;;;;14.00;3.80;;;;;;;8.42;100.00;100100.80;105595;1256;74119;-50
2023/04/21 12:18:21;;;;;;;10.30;3.20;;;;;;;8.43;100.00;100099.43;105584;1256;63321;-50
2023/04/21 12:20:50;;;;;;;11.80;3.50;;;;;;;8.43;100.00;100098.56;105619;1256;61541;-51
2023/04/21 12:23:18;;;;;;;19.90;3.60;;;;;;;8.43;100.00;100099.77;105603;1256;74240;-49
2023/04/21 12:25:47;;;;;;;11.90;3.50;;;;;;;8.47;100.00;100096.79;105592;1260;66079;-51
2023/04/21 12:28:17;;;;;;;8.70;3.60;;;;;;;8.52;100.00;100094.70;105606;1256;74212;-50
2023/04/21 12:30:45;;;;;;;6.00;2.90;;;;;;;8.51;100.00;100093.16;105630;1256;61845;-50
2023/04/21 12:33:13;;;;;;;11.80;3.40;;;;;;;8.46;100.00;100090.95;105639;1256;61553;-52
2023/04/21 12:35:42;;;;;;;9.10;2.90;;;;;;;8.45;100.00;100089.25;105594;1255;74339;-51
2023/04/21 12:38:10;;;;;;;13.30;3.10;;;;;;;8.46;100.00;100089.40;105640;1256;65978;-52
2023/04/21 12:40:39;;;;;;;8.30;3.10;;;;;;;8.44;100.00;100087.71;105592;1256;74221;-47
2023/04/21 12:43:07;;;;;;;13.60;3.30;;;;;;;8.42;100.00;100087.24;105646;1259;63577;-51
2023/04/21 12:45:36;;;;;;;14.40;3.60;;;;;;;8.43;100.00;100087.40;105635;1257;61700;-53
2023/04/21 12:48:05;;;;;;;16.50;3.60;;;;;;;8.44;100.00;100088.05;105669;1256;74560;-49
2023/04/21 12:50:33;;;;;;;16.20;3.30;;;;;;;8.45;100.00;100084.27;105673;1255;66153;-49
2023/04/21 12:53:02;;;;;;;8.70;2.80;;;;;;;8.45;100.00;100086.48;105635;1256;73977;-51
2023/04/21 12:55:30;;;;;;;16.00;3.30;;;;;;;8.46;100.00;100088.89;105446;1260;62318;-53
2023/04/21 12:57:59;;;;;;;9.30;3.40;;;;;;;8.45;100.00;100088.39;105650;1256;61971;-50
2023/04/21 13:00:27;;;;;;;13.90;3.00;;;;;;;8.44;100.00;100085.66;105642;1257;74551;-53
2023/04/21 13:02:56;;;;;;;17.00;3.30;;;;;;;8.45;100.00;100088.39;105639;1260;66064;-48
2023/04/21 13:05:25;;;;;;;20.70;3.50;;;;;;;8.48;100.00;100088.17;105643;1256;73910;-50
2023/04/21 13:07:54;;;;;;;17.80;3.00;;;;;;;8.49;100.00;100086.63;105627;1260;63496;-48
2023/04/21 13:10:24;;;;;;;13.60;3.20;;;;;;;8.52;100.00;100087.63;105611;1257;61288;-50
2023/04/21 13:12:52;;;;;;;20.20;3.50;;;;;;;8.54;100.00;100086.21;105586;1256;74237;-49
2023/04/21 13:15:20;;;;;;;11.00;2.90;;;;;;;8.57;100.00;100084.98;105637;1259;66215;-49
2023/04/21 13:17:49;;;;;;;17.10;4.10;;;;;;;8.58;100.00;100087.19;105653;1256;74220;-51
2023/04/21 13:20:17;;;;;;;9.20;2.50;;;;;;;8.61;100.00;100087.48;105630;1260;63223;-50
2023/04/21 13:22:46;;;;;;;10.20;3.80;;;;;;;8.66;100.00;100087.08;105620;1256;60805;-52
2023/04/21 13:25:15;;;;;;;18.10;3.40;;;;;;;8.71;100.00;100087.33;105593;1256;73589;-50
2023/04/21 13:27:45;;;;;;;13.20;3.00;;;;;;;8.72;100.00;100092.64;105599;1260;65921;-49
2023/04/21 14:19:34;;;;;;;18.40;6.00;;;;;;;9.14;100.00;100166.80;102627;1296;600605;-49
2023/04/21 14:22:03;;;;;;;11.50;3.20;;;;;;;9.16;100.00;100166.95;104844;1267;62652;-48
2023/04/21 14:24:32;;;;;;;15.60;3.40;;;;;;;9.16;100.00;100167.45;104871;1266;61947;-52
2023/04/21 14:27:01;;;;;;;13.30;3.80;;;;;;;9.17;100.00;100172.10;104897;1267;73829;-50
2023/04/21 14:29:29;;;;;;;23.30;4.10;;;;;;;9.13;100.00;100171.64;104868;1272;66430;-51
2023/04/21 14:31:58;;;;;;;21.80;3.60;;;;;;;9.10;100.00;100178.08;104823;1271;74300;-52
2023/04/21 14:34:27;;;;;;;14.20;4.00;;;;;;;9.06;100.00;100183.83;104985;1264;62148;-51
2023/04/21 14:36:56;;;;;;;15.80;3.50;;;;;;;9.00;100.00;100193.40;105141;1269;61624;-52
2023/04/21 14:39:24;;;;;;;9.60;3.20;;;;;;;8.95;100.00;100203.77;105239;1268;73703;-50